createdAt,value
2018-03-31T00:02:13.908Z,8.53
2018-03-31T00:04:40.885Z,8.03
2018-03-31T00:07:07.905Z,7.50
2018-03-31T00:09:34.894Z,8.43
2018-03-31T00:12:01.861Z,10.80
2018-03-31T00:14:28.821Z,12.10
2018-03-31T00:16:55.816Z,8.03
2018-03-31T00:19:23.546Z,12.83
2018-03-31T00:21:50.536Z,8.23
2018-03-31T00:24:17.684Z,10.17
2018-03-31T00:26:44.792Z,10.40
2018-03-31T00:29:11.785Z,9.63
2018-03-31T00:31:38.750Z,8.80
2018-03-31T00:34:05.704Z,9.07
2018-03-31T00:36:32.698Z,8.90
2018-03-31T00:38:59.737Z,8.40
2018-03-31T00:41:26.701Z,8.50
2018-03-31T00:43:53.692Z,7.43
2018-03-31T00:46:20.644Z,7.47
2018-03-31T00:48:47.625Z,7.67
2018-03-31T00:51:14.597Z,7.30
2018-03-31T00:53:41.558Z,6.60
2018-03-31T00:56:08.541Z,6.07
2018-03-31T00:58:35.528Z,9.80
2018-03-31T01:01:03.252Z,8.73
2018-03-31T01:03:30.217Z,5.97
2018-03-31T01:05:57.221Z,15.90
2018-03-31T01:08:24.257Z,14.37
2018-03-31T01:10:51.272Z,6.90
2018-03-31T01:13:18.249Z,6.43
2018-03-31T01:15:45.231Z,9.93
2018-03-31T01:18:12.229Z,8.70
2018-03-31T01:20:39.984Z,7.53
2018-03-31T01:23:07.731Z,7.60
2018-03-31T01:25:34.717Z,7.57
2018-03-31T01:28:01.704Z,8.07
2018-03-31T01:30:28.674Z,9.50
2018-03-31T01:32:55.638Z,8.77
2018-03-31T01:35:23.380Z,9.50
2018-03-31T01:37:50.414Z,8.97
2018-03-31T01:40:17.386Z,7.93
2018-03-31T01:42:44.396Z,10.27
2018-03-31T01:45:11.372Z,12.10
2018-03-31T01:47:38.340Z,12.03
2018-03-31T01:50:06.087Z,13.30
2018-03-31T01:52:33.058Z,11.70
2018-03-31T01:55:00.793Z,13.00
2018-03-31T01:57:27.792Z,11.60
2018-03-31T01:59:54.796Z,10.57
2018-03-31T02:02:21.782Z,9.40
2018-03-31T02:04:48.741Z,11.10
2018-03-31T02:07:15.732Z,11.60
2018-03-31T02:09:42.729Z,11.27
2018-03-31T02:12:09.714Z,13.47
2018-03-31T02:14:36.689Z,12.83
2018-03-31T02:17:04.437Z,11.80
2018-03-31T02:19:31.388Z,11.93
2018-03-31T02:21:58.368Z,11.80
2018-03-31T02:24:25.353Z,15.50
2018-03-31T02:26:52.325Z,15.93
2018-03-31T02:29:19.326Z,20.00
2018-03-31T02:31:47.084Z,17.93
2018-03-31T02:34:14.045Z,13.97
2018-03-31T02:36:41.088Z,13.43
2018-03-31T02:39:08.066Z,15.23
2018-03-31T02:41:35.047Z,11.73
2018-03-31T02:44:02.797Z,15.33
2018-03-31T02:46:29.762Z,18.93
2018-03-31T02:48:57.525Z,15.90
2018-03-31T02:51:24.519Z,16.03
2018-03-31T02:53:51.523Z,18.93
2018-03-31T02:56:18.489Z,15.80
2018-03-31T02:58:45.545Z,17.40
2018-03-31T03:01:12.512Z,16.50
2018-03-31T03:03:39.497Z,16.40
2018-03-31T03:06:07.260Z,15.70
2018-03-31T03:08:34.221Z,16.77
2018-03-31T03:11:01.955Z,15.73
2018-03-31T03:13:28.944Z,14.50
2018-03-31T03:15:55.904Z,17.30
2018-03-31T03:18:22.864Z,19.83
2018-03-31T03:20:50.607Z,20.07
2018-03-31T03:23:17.590Z,17.87
2018-03-31T03:25:44.565Z,25.10
2018-03-31T03:28:12.317Z,18.40
2018-03-31T03:30:39.310Z,14.90
2018-03-31T03:33:06.269Z,14.47
2018-03-31T03:35:33.253Z,15.27
2018-03-31T03:38:00.231Z,13.43
2018-03-31T03:40:27.974Z,17.93
2018-03-31T03:42:54.938Z,12.03
2018-03-31T03:45:21.930Z,12.57
2018-03-31T03:47:48.920Z,13.70
2018-03-31T03:50:16.712Z,16.03
2018-03-31T03:52:43.697Z,15.07
2018-03-31T03:55:10.660Z,11.53
2018-03-31T03:57:37.652Z,13.00
2018-03-31T04:00:04.629Z,15.20
2018-03-31T04:02:31.604Z,14.13
2018-03-31T04:04:58.582Z,14.93
2018-03-31T04:07:25.590Z,15.73
2018-03-31T04:09:52.553Z,14.70
2018-03-31T04:12:19.513Z,17.43
2018-03-31T04:14:46.495Z,14.83
2018-03-31T04:17:13.490Z,14.43
2018-03-31T04:19:40.530Z,15.20
2018-03-31T04:22:07.489Z,15.93
2018-03-31T04:24:34.465Z,16.53
2018-03-31T04:27:01.437Z,15.83
2018-03-31T04:29:28.460Z,14.33
2018-03-31T04:31:55.425Z,15.87
2018-03-31T04:34:22.406Z,19.80
2018-03-31T04:36:49.382Z,20.10
2018-03-31T04:39:16.369Z,19.30
2018-03-31T04:41:43.329Z,22.03
2018-03-31T04:44:10.325Z,18.97
2018-03-31T04:46:38.053Z,16.20
2018-03-31T04:49:05.068Z,19.10
2018-03-31T04:51:32.028Z,20.90
2018-03-31T04:53:59.014Z,17.83
2018-03-31T04:56:25.977Z,19.20
2018-03-31T04:58:53.725Z,18.90
2018-03-31T05:01:20.689Z,15.03
2018-03-31T05:03:47.681Z,15.60
2018-03-31T05:06:14.652Z,12.87
2018-03-31T05:08:41.658Z,14.20
2018-03-31T05:11:08.621Z,10.40
2018-03-31T05:13:35.602Z,16.20
2018-03-31T05:16:02.618Z,13.90
2018-03-31T05:18:29.661Z,17.50
2018-03-31T05:20:56.633Z,17.17
2018-03-31T05:23:23.636Z,18.70
2018-03-31T05:25:50.640Z,18.07
2018-03-31T05:28:17.639Z,19.20
2018-03-31T05:30:44.692Z,18.40
2018-03-31T05:33:11.673Z,15.13
2018-03-31T05:35:38.770Z,18.13
2018-03-31T05:38:05.741Z,16.80
2018-03-31T05:40:32.747Z,16.97
2018-03-31T05:43:00.473Z,20.73
2018-03-31T05:45:27.465Z,18.90
2018-03-31T05:47:55.233Z,17.43
2018-03-31T05:50:23.139Z,20.40
2018-03-31T05:52:50.106Z,20.03
2018-03-31T05:55:17.094Z,17.07
2018-03-31T05:57:44.064Z,18.70
2018-03-31T06:00:11.053Z,20.90
2018-03-31T06:02:38.038Z,23.07
2018-03-31T06:05:05.030Z,20.40
2018-03-31T06:07:32.045Z,20.57
2018-03-31T06:09:59.029Z,23.20
2018-03-31T06:12:26.022Z,20.57
2018-03-31T06:14:53.027Z,21.10
2018-03-31T06:17:20.025Z,18.43
2018-03-31T06:19:47.757Z,42.87
2018-03-31T06:22:14.738Z,22.37
2018-03-31T06:24:41.716Z,28.80
2018-03-31T06:27:08.718Z,19.87
2018-03-31T06:29:35.701Z,22.17
2018-03-31T06:32:02.670Z,18.80
2018-03-31T06:34:29.646Z,24.60
2018-03-31T06:36:56.637Z,20.30
2018-03-31T06:39:23.619Z,25.47
2018-03-31T06:41:50.610Z,17.00
2018-03-31T06:44:17.582Z,19.83
2018-03-31T06:46:44.569Z,16.47
2018-03-31T06:49:11.525Z,19.83
2018-03-31T06:51:38.511Z,17.37
2018-03-31T06:54:05.486Z,19.07
2018-03-31T06:56:32.473Z,21.60
2018-03-31T06:58:59.438Z,14.73
2018-03-31T07:01:26.521Z,19.67
2018-03-31T07:03:54.261Z,22.37
2018-03-31T07:06:21.237Z,19.50
2018-03-31T07:08:48.286Z,16.97
2018-03-31T07:11:15.270Z,17.37
2018-03-31T07:13:42.250Z,19.47
2018-03-31T07:16:09.233Z,19.07
2018-03-31T07:18:36.196Z,23.60
2018-03-31T07:21:03.182Z,22.13
2018-03-31T07:23:30.151Z,19.60
2018-03-31T07:25:57.129Z,20.13
2018-03-31T07:28:24.126Z,18.17
2018-03-31T07:30:51.076Z,19.07
2018-03-31T07:33:18.084Z,21.83
2018-03-31T07:35:45.055Z,20.10
2018-03-31T07:38:12.014Z,21.77
2018-03-31T07:40:39.027Z,17.23
2018-03-31T07:43:05.990Z,18.07
2018-03-31T07:45:32.980Z,14.70
2018-03-31T07:47:59.941Z,19.63
2018-03-31T07:50:26.906Z,16.40
2018-03-31T07:52:54.653Z,16.83
2018-03-31T07:55:21.621Z,17.60
2018-03-31T07:57:49.389Z,15.57
2018-03-31T08:00:16.354Z,12.33
2018-03-31T08:02:43.325Z,10.57
2018-03-31T08:05:10.291Z,12.13
2018-03-31T08:07:37.272Z,11.77
2018-03-31T08:10:05.032Z,10.67
2018-03-31T08:12:31.992Z,16.57
2018-03-31T08:14:59.750Z,13.77
2018-03-31T08:17:27.476Z,10.73
2018-03-31T08:19:54.580Z,10.27
2018-03-31T08:22:22.314Z,11.93
2018-03-31T08:24:49.306Z,9.27
2018-03-31T08:27:16.298Z,9.67
2018-03-31T08:29:43.272Z,8.83
2018-03-31T08:32:11.067Z,8.70
2018-03-31T08:34:37.988Z,12.63
2018-03-31T08:37:05.733Z,8.10
2018-03-31T08:39:32.722Z,10.90
2018-03-31T08:41:59.681Z,14.37
2018-03-31T08:44:26.744Z,7.60
2018-03-31T08:46:53.742Z,11.73
2018-03-31T08:49:20.726Z,10.00
2018-03-31T08:51:47.796Z,8.83
2018-03-31T08:54:14.807Z,9.40
2018-03-31T08:56:41.769Z,7.47
2018-03-31T08:59:08.781Z,8.23
2018-03-31T09:01:35.852Z,6.30
2018-03-31T09:04:02.849Z,11.27
2018-03-31T09:06:29.806Z,7.10
2018-03-31T09:08:57.553Z,6.60
2018-03-31T09:11:24.508Z,10.93
2018-03-31T09:13:51.512Z,9.10
2018-03-31T09:16:18.473Z,6.33
2018-03-31T09:18:45.733Z,8.80
2018-03-31T09:21:12.709Z,7.27
2018-03-31T09:23:40.444Z,8.50
2018-03-31T09:26:07.448Z,7.90
2018-03-31T09:28:34.417Z,10.10
2018-03-31T09:31:01.429Z,6.97
2018-03-31T09:33:28.400Z,8.13
2018-03-31T09:35:55.386Z,6.87
2018-03-31T09:38:22.358Z,11.80
2018-03-31T09:40:49.358Z,9.43
2018-03-31T09:43:16.354Z,7.90
2018-03-31T09:45:44.105Z,12.83
2018-03-31T09:48:11.073Z,8.60
2018-03-31T09:50:38.830Z,5.30
2018-03-31T09:53:05.789Z,9.17
2018-03-31T09:55:32.785Z,8.63
2018-03-31T09:57:59.751Z,6.80
2018-03-31T10:00:32.370Z,9.07
2018-03-31T10:02:59.357Z,12.60
2018-03-31T10:05:26.320Z,9.23
2018-03-31T10:07:53.335Z,8.07
2018-03-31T10:10:20.301Z,9.20
2018-03-31T10:12:47.300Z,15.83
2018-03-31T10:15:14.287Z,11.20
2018-03-31T10:17:41.266Z,9.43
2018-03-31T10:20:09.029Z,7.43
2018-03-31T10:22:36.032Z,10.13
2018-03-31T10:25:02.977Z,6.33
2018-03-31T10:27:29.986Z,5.90
2018-03-31T10:29:57.717Z,8.37
2018-03-31T10:32:24.685Z,7.47
2018-03-31T10:34:52.436Z,9.23
2018-03-31T10:37:19.420Z,5.73
2018-03-31T10:39:46.414Z,6.13
2018-03-31T10:42:13.385Z,9.10
2018-03-31T10:44:40.398Z,9.07
2018-03-31T10:47:07.369Z,10.77
2018-03-31T10:49:34.381Z,10.73
2018-03-31T10:52:01.368Z,7.20
2018-03-31T10:54:28.346Z,8.03
2018-03-31T10:56:55.362Z,13.63
2018-03-31T10:59:22.360Z,8.37
2018-03-31T11:01:49.348Z,15.20
2018-03-31T11:04:16.323Z,9.13
2018-03-31T11:06:43.338Z,5.53
2018-03-31T11:09:10.365Z,7.27
2018-03-31T11:11:37.337Z,12.57
2018-03-31T11:14:04.357Z,8.20
2018-03-31T11:16:31.335Z,5.83
2018-03-31T11:18:58.330Z,8.03
2018-03-31T11:21:25.318Z,10.43
2018-03-31T11:23:52.285Z,7.33
2018-03-31T11:26:19.277Z,7.80
2018-03-31T11:28:46.298Z,7.67
2018-03-31T11:31:13.275Z,8.53
2018-03-31T11:33:40.250Z,5.10
2018-03-31T11:36:07.999Z,5.70
2018-03-31T11:38:34.964Z,5.60
2018-03-31T11:41:01.957Z,6.37
2018-03-31T11:43:28.949Z,7.80
2018-03-31T11:45:55.948Z,11.30
2018-03-31T11:48:22.933Z,4.40
2018-03-31T11:50:49.922Z,5.77
2018-03-31T11:53:16.904Z,4.50
2018-03-31T11:55:43.866Z,5.60
2018-03-31T11:58:10.846Z,3.93
2018-03-31T12:00:37.809Z,3.60
2018-03-31T12:03:05.605Z,4.33
2018-03-31T12:05:32.560Z,4.40
2018-03-31T12:07:59.523Z,5.67
2018-03-31T12:10:26.505Z,3.20
2018-03-31T12:12:53.489Z,12.50
2018-03-31T12:15:20.456Z,5.27
2018-03-31T12:17:47.457Z,3.47
2018-03-31T12:20:14.427Z,4.83
2018-03-31T12:22:41.413Z,3.67
2018-03-31T12:25:08.386Z,4.23
2018-03-31T12:27:35.387Z,5.83
2018-03-31T12:30:02.349Z,5.00
2018-03-31T12:32:29.330Z,3.40
2018-03-31T12:34:56.325Z,2.83
2018-03-31T12:37:23.277Z,6.20
2018-03-31T12:39:50.300Z,2.57
2018-03-31T12:42:17.273Z,7.53
2018-03-31T12:44:44.252Z,3.70
2018-03-31T12:47:11.238Z,3.20
2018-03-31T12:49:38.226Z,4.43
2018-03-31T12:52:05.206Z,3.37
2018-03-31T12:54:32.937Z,4.17
2018-03-31T12:56:59.930Z,5.00
2018-03-31T12:59:27.656Z,7.07
2018-03-31T13:01:54.643Z,6.43
2018-03-31T13:04:22.378Z,6.20
2018-03-31T13:06:49.366Z,3.73
2018-03-31T13:09:16.333Z,4.17
2018-03-31T13:11:43.354Z,4.00
2018-03-31T13:14:10.328Z,5.47
2018-03-31T13:16:37.297Z,3.67
2018-03-31T13:19:04.306Z,4.87
2018-03-31T13:21:31.269Z,5.57
2018-03-31T13:23:58.229Z,5.37
2018-03-31T13:26:25.209Z,3.30
2018-03-31T13:28:52.206Z,4.17
2018-03-31T13:31:19.202Z,9.47
2018-03-31T13:33:46.189Z,6.70
2018-03-31T13:36:13.189Z,4.03
2018-03-31T13:38:40.174Z,7.90
2018-03-31T13:41:07.169Z,4.13
2018-03-31T13:43:34.125Z,6.40
2018-03-31T13:46:01.109Z,7.90
2018-03-31T13:48:28.109Z,4.23
2018-03-31T13:50:55.106Z,4.50
2018-03-31T13:53:22.114Z,5.33
2018-03-31T13:55:49.126Z,4.67
2018-03-31T13:58:16.098Z,6.33
2018-03-31T14:00:43.085Z,5.50
2018-03-31T14:03:10.837Z,5.60
2018-03-31T14:05:38.226Z,4.90
2018-03-31T14:08:05.199Z,4.30
2018-03-31T14:10:32.176Z,19.47
2018-03-31T14:12:59.157Z,7.30
2018-03-31T14:15:26.129Z,3.63
2018-03-31T14:17:53.136Z,6.27
2018-03-31T14:20:20.881Z,5.27
2018-03-31T14:22:48.625Z,7.10
2018-03-31T14:25:15.596Z,8.73
2018-03-31T14:27:42.591Z,5.10
2018-03-31T14:30:09.629Z,14.83
2018-03-31T14:32:36.633Z,10.50
2018-03-31T14:35:03.589Z,8.23
2018-03-31T14:37:31.349Z,5.27
2018-03-31T14:39:59.114Z,10.63
2018-03-31T14:42:26.077Z,6.70
2018-03-31T14:44:53.838Z,5.93
2018-03-31T14:47:21.569Z,5.23
2018-03-31T14:49:48.549Z,7.50
2018-03-31T14:52:16.308Z,15.53
2018-03-31T14:54:44.052Z,12.77
2018-03-31T14:57:11.055Z,12.00
2018-03-31T14:59:38.037Z,8.70
2018-03-31T15:02:05.006Z,7.87
2018-03-31T15:04:31.973Z,5.13
2018-03-31T15:06:59.717Z,6.37
2018-03-31T15:09:26.705Z,7.57
2018-03-31T15:11:53.731Z,9.00
2018-03-31T15:14:20.741Z,13.87
2018-03-31T15:16:47.697Z,8.90
2018-03-31T15:19:14.746Z,6.77
2018-03-31T15:21:41.673Z,8.53
2018-03-31T15:24:08.665Z,14.90
2018-03-31T15:26:35.650Z,8.33
2018-03-31T15:29:02.617Z,7.53
2018-03-31T15:31:29.618Z,7.97
2018-03-31T15:33:56.579Z,5.73
2018-03-31T15:36:24.392Z,7.13
2018-03-31T15:38:51.373Z,6.07
2018-03-31T15:41:18.406Z,177.57
2018-03-31T15:43:45.367Z,7.50
2018-03-31T15:46:12.373Z,8.37
2018-03-31T15:48:39.360Z,13.37
2018-03-31T15:51:06.345Z,12.23
2018-03-31T15:53:33.312Z,4.27
2018-03-31T15:56:00.292Z,7.07
2018-03-31T15:58:27.354Z,4.73
2018-03-31T16:00:54.341Z,4.10
2018-03-31T16:03:21.295Z,5.40
2018-03-31T16:05:48.281Z,6.30
2018-03-31T16:08:16.076Z,4.60
2018-03-31T16:10:43.065Z,4.43
2018-03-31T16:13:10.031Z,5.90
2018-03-31T16:15:37.779Z,3.83
2018-03-31T16:18:04.751Z,6.60
2018-03-31T16:20:32.489Z,5.67
2018-03-31T16:22:59.477Z,4.80
2018-03-31T16:25:26.457Z,3.87
2018-03-31T16:27:53.442Z,3.00
2018-03-31T16:30:20.445Z,3.83
2018-03-31T16:32:47.409Z,3.20
2018-03-31T16:35:14.401Z,6.60
2018-03-31T16:37:42.138Z,3.80
2018-03-31T16:40:09.141Z,4.63
2018-03-31T16:42:36.141Z,5.30
2018-03-31T16:45:03.109Z,3.23
2018-03-31T16:47:30.852Z,5.07
2018-03-31T16:49:57.850Z,5.63
2018-03-31T16:52:24.820Z,6.13
2018-03-31T16:54:51.813Z,7.87
2018-03-31T16:57:19.553Z,8.13
2018-03-31T16:59:46.536Z,15.23
2018-03-31T17:02:13.509Z,11.90
2018-03-31T17:04:40.525Z,12.37
2018-03-31T17:07:07.496Z,8.20
2018-03-31T17:09:34.498Z,12.80
2018-03-31T17:12:01.497Z,14.20
2018-03-31T17:14:28.496Z,8.93
2018-03-31T17:16:55.447Z,8.83
2018-03-31T17:19:22.540Z,11.30
2018-03-31T17:21:49.533Z,11.33
2018-03-31T17:24:16.497Z,16.07
2018-03-31T17:26:43.469Z,21.93
2018-03-31T17:29:10.449Z,21.43
2018-03-31T17:31:37.418Z,27.17
2018-03-31T17:34:05.178Z,26.60
2018-03-31T17:36:32.152Z,131.37
2018-03-31T17:38:59.146Z,310.17
2018-03-31T17:41:26.137Z,319.80
2018-03-31T17:43:53.875Z,240.10
2018-03-31T17:46:20.863Z,217.43
2018-03-31T17:48:47.858Z,158.07
2018-03-31T17:51:14.829Z,136.83
2018-03-31T17:53:42.601Z,90.07
2018-03-31T17:56:09.568Z,89.87
2018-03-31T17:58:36.559Z,66.23
2018-03-31T18:01:03.542Z,66.13
2018-03-31T18:03:30.555Z,70.50
2018-03-31T18:05:57.565Z,68.80
2018-03-31T18:08:24.534Z,52.57
2018-03-31T18:10:52.302Z,47.47
2018-03-31T18:13:19.301Z,48.77
2018-03-31T18:15:47.054Z,36.90
2018-03-31T18:18:14.796Z,47.43
2018-03-31T18:20:41.790Z,66.77
2018-03-31T18:23:08.834Z,109.07
2018-03-31T18:25:35.797Z,141.63
2018-03-31T18:28:02.781Z,68.87
2018-03-31T18:30:29.780Z,49.17
2018-03-31T18:32:56.758Z,52.57
2018-03-31T18:35:23.751Z,56.33
2018-03-31T18:37:51.482Z,37.30
2018-03-31T18:40:18.460Z,6.93
2018-03-31T18:42:46.210Z,2.43
2018-03-31T18:45:13.193Z,3.30
2018-03-31T18:47:40.161Z,0.90
2018-03-31T18:50:07.252Z,6.33
2018-03-31T18:52:35.001Z,1.57
2018-03-31T18:55:01.979Z,3.23
2018-03-31T18:57:29.738Z,1.43
2018-03-31T18:59:56.731Z,4.03
2018-03-31T19:02:23.713Z,1.77
2018-03-31T19:04:50.721Z,3.20
2018-03-31T19:07:17.689Z,2.33
2018-03-31T19:09:44.665Z,1.53
2018-03-31T19:12:11.646Z,1.97
2018-03-31T19:14:42.485Z,3.40
2018-03-31T19:17:14.369Z,5.83
2018-03-31T19:19:41.339Z,3.70
2018-03-31T19:22:08.330Z,4.27
2018-03-31T19:24:41.539Z,3.80
2018-03-31T19:27:08.519Z,7.60
2018-03-31T19:29:35.480Z,9.50
2018-03-31T19:32:02.470Z,12.80
2018-03-31T19:34:29.470Z,5.40
2018-03-31T19:36:56.436Z,5.40
2018-03-31T19:39:29.164Z,7.83
2018-03-31T19:41:56.145Z,7.90
2018-03-31T19:44:23.209Z,24.40
2018-03-31T19:46:50.193Z,19.03
2018-03-31T19:49:17.175Z,8.13
2018-03-31T19:51:44.156Z,13.33
2018-03-31T19:54:11.895Z,4.60
2018-03-31T19:56:38.877Z,4.53
2018-03-31T19:59:06.706Z,2.63
2018-03-31T20:01:33.660Z,3.93
2018-03-31T20:04:00.623Z,2.43
2018-03-31T20:06:27.581Z,2.63
2018-03-31T20:08:54.581Z,2.30
2018-03-31T20:11:21.537Z,2.87
2018-03-31T20:13:48.510Z,2.87
2018-03-31T20:16:15.506Z,5.83
2018-03-31T20:18:42.477Z,5.50
2018-03-31T20:21:09.456Z,6.37
2018-03-31T20:23:37.194Z,9.20
2018-03-31T20:26:04.187Z,14.80
2018-03-31T20:28:31.230Z,16.87
2018-03-31T20:30:58.997Z,19.17
2018-03-31T20:33:26.731Z,16.07
2018-03-31T20:35:53.747Z,17.07
2018-03-31T20:38:20.724Z,9.93
2018-03-31T20:40:47.692Z,12.57
2018-03-31T20:43:14.730Z,17.80
2018-03-31T20:45:41.684Z,20.40
2018-03-31T20:48:09.417Z,17.63
2018-03-31T20:50:36.405Z,18.97
2018-03-31T20:53:03.384Z,20.27
2018-03-31T20:55:30.363Z,20.77
2018-03-31T20:57:57.348Z,29.93
2018-03-31T21:00:24.350Z,30.60
2018-03-31T21:02:51.342Z,26.47
2018-03-31T21:05:18.308Z,23.07
2018-03-31T21:07:45.315Z,29.67
2018-03-31T21:10:12.265Z,22.20
2018-03-31T21:12:39.241Z,27.73
2018-03-31T21:15:06.326Z,27.57
2018-03-31T21:17:33.288Z,24.77
2018-03-31T21:20:00.273Z,28.00
2018-03-31T21:22:27.262Z,39.60
2018-03-31T21:24:54.250Z,40.50
2018-03-31T21:27:22.005Z,29.40
2018-03-31T21:29:49.002Z,27.67
2018-03-31T21:32:15.976Z,28.00
2018-03-31T21:34:42.960Z,27.13
2018-03-31T21:37:09.921Z,26.47
2018-03-31T21:39:36.921Z,29.80
2018-03-31T21:42:03.881Z,22.60
2018-03-31T21:44:30.862Z,32.20
2018-03-31T21:46:57.861Z,41.60
2018-03-31T21:49:24.889Z,39.03
2018-03-31T21:51:51.875Z,44.07
2018-03-31T21:54:18.846Z,45.10
2018-03-31T21:56:46.576Z,30.90
2018-03-31T21:59:13.577Z,26.00
2018-03-31T22:01:40.566Z,19.40
2018-03-31T22:04:07.556Z,22.87
2018-03-31T22:06:34.558Z,19.67
2018-03-31T22:09:01.560Z,17.17
2018-03-31T22:11:28.556Z,13.90
2018-03-31T22:14:01.270Z,16.83
2018-03-31T22:16:28.998Z,15.23
2018-03-31T22:18:55.980Z,11.57
2018-03-31T22:21:22.977Z,15.50
2018-03-31T22:23:49.941Z,14.80
2018-03-31T22:26:16.935Z,13.57
2018-03-31T22:28:43.890Z,10.23
2018-03-31T22:31:10.877Z,13.73
2018-03-31T22:33:37.892Z,12.80
2018-03-31T22:36:04.833Z,13.70
2018-03-31T22:38:31.793Z,20.77
2018-03-31T22:40:58.788Z,13.00
2018-03-31T22:43:26.520Z,13.70
2018-03-31T22:45:53.521Z,17.20
2018-03-31T22:48:20.909Z,16.83
2018-03-31T22:50:47.864Z,10.97
2018-03-31T22:53:14.858Z,17.27
2018-03-31T22:55:41.822Z,16.70
2018-03-31T22:58:08.810Z,14.40
2018-03-31T23:00:35.793Z,28.63
2018-03-31T23:03:02.752Z,18.57
2018-03-31T23:05:29.801Z,14.83
2018-03-31T23:07:56.724Z,17.40
2018-03-31T23:10:23.717Z,19.67
2018-03-31T23:12:50.685Z,14.60
2018-03-31T23:15:17.657Z,15.60
2018-03-31T23:17:44.646Z,14.70
2018-03-31T23:20:11.624Z,18.23
2018-03-31T23:22:38.597Z,15.80
2018-03-31T23:25:05.586Z,17.80
2018-03-31T23:27:32.560Z,16.03
2018-03-31T23:29:59.694Z,16.93
2018-03-31T23:32:26.661Z,20.80
2018-03-31T23:34:53.633Z,20.40
2018-03-31T23:37:20.633Z,19.90
2018-03-31T23:39:47.601Z,23.37
2018-03-31T23:42:14.561Z,20.50
2018-03-31T23:44:41.543Z,21.80
2018-03-31T23:47:08.544Z,20.27
2018-03-31T23:49:35.514Z,19.70
2018-03-31T23:52:02.492Z,22.20
2018-03-31T23:54:29.583Z,25.13
2018-03-31T23:56:56.544Z,25.63
2018-03-31T23:59:23.537Z,20.23
